Monday, October 22, 2018, 8:40 PM EDT
Back to Local

KMHT, Manchester Airport

Location: Manchester, NH, United States Lat: 42.933
Local Time: 8:40 PM EDT ( 0:40 GMT) Lon: -71.433
Time Zone: US/Eastern Elev: 232 ft

Show me the last for .
Show Decoded

2018-10-22 19:53 METAR KMHT 222353Z 21004KT 10SM OVC060 08/M01 A3015 RMK AO2 SLP225 T00781011
                 10106 20078 53013 =
2018-10-22 18:53 METAR KMHT 222253Z 18005KT 10SM OVC065 08/M01 A3013 RMK AO2 SLP219 T00831011 =
2018-10-22 17:53 METAR KMHT 222153Z 18004KT 10SM BKN065 BKN075 09/M02 A3012 RMK AO2 SLP215
                 T00891022 =
2018-10-22 16:53 METAR KMHT 222053Z 20005KT 10SM BKN060 09/M04 A3011 RMK AO2 SLP211 T00941039
                 56003 =
2018-10-22 15:53 METAR KMHT 221953Z VRB04KT 10SM BKN060 09/M05 A3011 RMK AO2 SLP212 T00941050 =
2018-10-22 14:53 METAR KMHT 221853Z VRB04KT 10SM BKN060 09/M06 A3010 RMK AO2 SLP211 T00941056 =
2018-10-22 13:53 METAR KMHT 221753Z 30010KT 10SM BKN060 09/M06 A3012 RMK AO2 SLP215 T00941061
                 10100 21017 56010 =
2018-10-22 12:53 METAR KMHT 221653Z 29009KT 10SM FEW055 SCT150 09/M06 A3013 RMK AO2 SLP219
                 T00891061 =
2018-10-22 11:53 METAR KMHT 221553Z 28007KT 10SM FEW045 FEW150 08/M06 A3014 RMK AO2 SLP221
                 T00781061 =
2018-10-22 10:53 METAR KMHT 221453Z 31006KT 10SM FEW042 FEW150 06/M07 A3015 RMK AO2 SLP225
                 T00611067 58002 =
2018-10-22 09:53 METAR KMHT 221353Z 00000KT 10SM FEW200 04/M06 A3015 RMK AO2 SLP228 T00441056 =
2018-10-22 08:53 METAR KMHT 221253Z 19004KT 10SM FEW200 01/M04 A3016 RMK AO2 SLP231 T00061044 =
2018-10-22 07:53 METAR KMHT 221153Z 18003KT 10SM FEW200 M02/M04 A3015 RMK AO2 SLP228 T10171044
                 10011 21017 53020 =
2018-10-22 06:53 METAR KMHT 221053Z 00000KT 10SM FEW200 M02/M06 A3013 RMK AO2 SLP221 T10171056 =
2018-10-22 05:53 METAR KMHT 220953Z 20003KT 10SM FEW060 FEW200 M02/M06 A3011 RMK AO2 SLP214
                 T10171056 =
2018-10-22 04:53 METAR KMHT 220853Z 17003KT 10SM FEW055 FEW200 M01/M06 A3009 RMK AO2 SLP208
                 T10111061 51006 =
2018-10-22 03:53 METAR KMHT 220753Z 18003KT 10SM FEW055 SCT200 M01/M06 A3009 RMK AO2 SLP205
                 T10111061 =
2018-10-22 02:53 METAR KMHT 220653Z 28003KT 10SM FEW055 01/M07 A3008 RMK AO2 SLP204 T00111067 =
2018-10-22 01:53 METAR KMHT 220553Z 28003KT 10SM FEW050 01/M08 A3007 RMK AO2 SLP200 T00111078
                 10033 20011 53008 =
2018-10-22 00:53 METAR KMHT 220453Z 28007KT 10SM FEW050 02/M09 A3007 RMK AO2 SLP198 T00171089
                 400890017 =
2018-10-21 23:53 METAR KMHT 220353Z 29005KT 10SM FEW050 02/M08 A3005 RMK AO2 SLP193 T00171083 =
2018-10-21 22:53 METAR KMHT 220253Z 29007KT 10SM FEW050 02/M08 A3005 RMK AO2 SLP192 T00221078
                 51024 =
2018-10-21 21:53 METAR KMHT 220153Z 32010G15KT 10SM SCT050 03/M08 A3003 RMK AO2 SLP184 T00281078
                 =
2018-10-21 20:53 METAR KMHT 220053Z 32008G18KT 270V340 10SM CLR 03/M08 A3001 RMK AO2 SLP179
                 T00331078 =

Support USWX by starting your Amazon purchase here.